Time;durP1;ratioP1;P1;durP2;ratioP2;P2;SDS_P1;SDS_P2;PMS_P1;PMS_P2;Temp;Humidity;BMP_temperature;BMP_pressure;BME280_temperature;BME280_humidity;BME280_pressure;Samples;Min_cycle;Max_cycle;Signal;HPM_P1;HPM_P2
2021/10/02 00:37:52;;;;;;;0.38;0.38;;;;;;;0.97;64.47;99195.34;5054564;28;20051;-62
2021/10/02 00:45:49;;;;;;;0.63;0.63;;;;;;;0.86;64.78;99188.34;5054579;28;20075;-62
2021/10/02 00:48:15;;;;;;;0.40;0.40;;;;;;;0.83;64.76;99187.84;5053950;28;20478;-62
2021/10/02 00:50:40;;;;;;;0.50;0.50;;;;;;;0.81;64.77;99184.44;5053387;28;20049;-61
2021/10/02 00:53:06;;;;;;;0.52;0.52;;;;;;;0.76;64.87;99186.78;5053672;28;20419;-63
2021/10/02 00:55:32;;;;;;;1.00;0.93;;;;;;;0.73;65.06;99187.13;5054466;28;20095;-62
2021/10/02 00:57:58;;;;;;;0.50;0.50;;;;;;;0.68;65.12;99183.03;5054312;28;20051;-63
2021/10/02 01:00:25;;;;;;;0.30;0.30;;;;;;;0.64;65.02;99170.84;5053061;28;20041;-63
2021/10/02 01:03:06;;;;;;;0.40;0.40;;;;;;;0.64;65.33;99173.56;5053683;28;20040;-63
2021/10/02 01:05:52;;;;;;;0.73;0.73;;;;;;;0.62;65.30;99169.31;5053970;28;20400;-64
2021/10/02 01:08:27;;;;;;;0.45;0.45;;;;;;;0.58;65.34;99163.41;5053423;28;20068;-63
2021/10/02 01:11:25;;;;;;;0.40;0.40;;;;;;;0.56;65.46;99178.06;5053810;28;20079;-65
2021/10/02 01:14:17;;;;;;;0.30;0.30;;;;;;;0.51;65.31;99179.41;5040130;28;20537;-61
2021/10/02 01:16:47;;;;;;;0.30;0.30;;;;;;;0.50;65.39;99175.03;5054032;28;20065;-60
2021/10/02 01:19:31;;;;;;;0.30;0.30;;;;;;;0.50;65.33;99176.88;5053161;28;20056;-61
2021/10/02 01:22:39;;;;;;;0.40;0.40;;;;;;;0.48;65.26;99168.09;5053541;28;20148;-62
2021/10/02 01:25:38;;;;;;;0.20;0.20;;;;;;;0.50;65.31;99168.75;5053256;28;20041;-61
2021/10/02 01:28:14;;;;;;;0.50;0.50;;;;;;;0.51;65.08;99171.28;5052798;28;20048;-62
2021/10/02 01:33:51;;;;;;;0.40;0.40;;;;;;;0.52;65.26;99180.28;5035591;28;20095;-62
2021/10/02 01:47:12;;;;;;;;;;;;;;;0.93;64.11;99166.94;5053586;28;20134;-62
2021/10/02 01:49:54;;;;;;;0.50;0.50;;;;;;;1.04;64.04;99177.41;5052820;28;19969;-61
2021/10/02 01:52:24;;;;;;;2.63;0.55;;;;;;;1.12;64.00;99173.03;5052697;28;20041;-61
2021/10/02 01:54:52;;;;;;;0.65;0.52;;;;;;;1.18;63.88;99164.28;5052880;28;20044;-61
2021/10/02 01:57:20;;;;;;;0.90;0.85;;;;;;;1.22;64.01;99179.16;5052924;28;20044;-63
2021/10/02 01:59:46;;;;;;;2.10;0.40;;;;;;;1.28;63.93;99174.94;5052324;28;20102;-62
2021/10/02 02:02:13;;;;;;;0.30;0.30;;;;;;;1.31;63.87;99175.47;5034943;28;20040;-62
2021/10/02 02:04:40;;;;;;;3.72;0.82;;;;;;;1.38;63.79;99170.22;5052679;28;20450;-62
2021/10/02 02:07:08;;;;;;;0.40;0.40;;;;;;;1.46;63.80;99183.78;5052531;28;20041;-62
2021/10/02 02:09:39;;;;;;;0.60;0.60;;;;;;;1.50;63.91;99186.97;5052581;28;20495;-62
2021/10/02 02:12:12;;;;;;;0.90;0.90;;;;;;;1.54;63.95;99182.94;5051816;28;20053;-60
2021/10/02 02:14:40;;;;;;;0.65;0.65;;;;;;;1.56;63.78;99189.88;5052540;28;20045;-62
2021/10/02 02:17:08;;;;;;;0.30;0.30;;;;;;;1.61;63.81;99183.97;5052513;28;20072;-62
2021/10/02 02:19:35;;;;;;;0.40;0.40;;;;;;;1.66;63.80;99176.16;5052671;28;20037;-62
2021/10/02 02:22:03;;;;;;;0.68;0.60;;;;;;;1.70;63.76;99180.25;5034612;28;20045;-61
2021/10/02 02:24:29;;;;;;;0.50;0.50;;;;;;;1.71;63.67;99181.94;5052257;28;20107;-63
2021/10/02 02:26:57;;;;;;;1.00;0.90;;;;;;;1.73;64.00;99179.91;5052249;28;20044;-63
2021/10/02 02:29:24;;;;;;;0.63;0.63;;;;;;;1.79;63.88;99175.66;5051987;28;20037;-63
2021/10/02 02:31:50;;;;;;;0.40;0.40;;;;;;;1.91;63.70;99170.75;5052488;28;20048;-60
2021/10/02 02:34:16;;;;;;;0.22;0.22;;;;;;;2.06;63.51;99168.19;5052277;28;20057;-60
2021/10/02 02:36:42;;;;;;;0.40;0.40;;;;;;;2.21;63.14;99181.88;5052258;28;20041;-61
2021/10/02 02:39:07;;;;;;;0.20;0.20;;;;;;;2.32;63.01;99183.41;5051972;28;20040;-61
2021/10/02 02:41:33;;;;;;;0.30;0.30;;;;;;;2.41;62.70;99180.50;5052143;28;20041;-61
2021/10/02 02:43:59;;;;;;;0.50;0.50;;;;;;;2.49;62.71;99167.94;5052489;28;20475;-62
2021/10/02 02:46:35;;;;;;;0.65;0.50;;;;;;;2.57;62.67;99162.50;5034257;28;20045;-63
2021/10/02 02:49:24;;;;;;;0.25;0.25;;;;;;;2.61;62.54;99167.41;5034318;28;20041;-63
2021/10/02 02:51:56;;;;;;;0.35;0.35;;;;;;;2.60;62.80;99167.56;5051145;28;20060;-64
2021/10/02 02:54:36;;;;;;;0.30;0.30;;;;;;;2.61;62.79;99169.28;5051410;28;20448;-64
2021/10/02 02:57:15;;;;;;;0.30;0.30;;;;;;;2.61;63.04;99172.00;5051705;28;20132;-62
2021/10/02 02:59:49;;;;;;;0.20;0.20;;;;;;;2.64;63.02;99168.94;5033713;28;20503;-62
2021/10/02 03:02:19;;;;;;;0.82;0.82;;;;;;;2.73;63.00;99175.16;5051827;28;20045;-61
2021/10/02 03:04:47;;;;;;;0.90;0.73;;;;;;;2.78;62.92;99183.59;5051835;28;20496;-66
2021/10/02 03:07:18;;;;;;;2.15;0.65;;;;;;;2.82;62.86;99173.25;5051675;28;20041;-64
2021/10/02 03:09:47;;;;;;;0.30;0.30;;;;;;;2.86;62.88;99180.88;5051796;28;20045;-62
2021/10/02 03:12:14;;;;;;;0.85;0.40;;;;;;;2.89;62.58;99175.09;5033981;28;20135;-64
2021/10/02 03:14:45;;;;;;;0.38;0.38;;;;;;;2.98;62.73;99184.03;5053132;28;20407;-63
2021/10/02 03:17:13;;;;;;;0.30;0.30;;;;;;;3.04;62.59;99177.91;5055742;28;20466;-65
2021/10/02 03:19:41;;;;;;;1.50;0.77;;;;;;;3.13;62.46;99187.69;5051025;28;20467;-65
2021/10/02 03:22:09;;;;;;;0.52;0.52;;;;;;;3.21;62.45;99185.94;5037497;28;20049;-63
2021/10/02 03:24:42;;;;;;;0.50;0.50;;;;;;;3.30;62.30;99193.88;5035633;28;20454;-63
2021/10/02 03:27:09;;;;;;;0.35;0.35;;;;;;;3.39;62.10;99191.13;5035329;28;20041;-61
2021/10/02 03:29:37;;;;;;;4.72;0.70;;;;;;;3.49;62.05;99187.16;5035118;28;20524;-63
2021/10/02 03:32:05;;;;;;;0.55;0.43;;;;;;;3.63;61.85;99180.06;5035946;28;20044;-61
2021/10/02 03:34:32;;;;;;;0.40;0.40;;;;;;;3.78;61.66;99188.28;5035877;28;20067;-61
2021/10/02 03:36:58;;;;;;;1.65;0.40;;;;;;;3.94;61.42;99189.19;5035264;28;20518;-62
2021/10/02 03:39:24;;;;;;;0.47;0.47;;;;;;;4.12;61.11;99186.13;5017612;28;20038;-62
2021/10/02 03:42:06;;;;;;;0.95;0.47;;;;;;;4.29;60.81;99184.13;5035918;28;20087;-63
2021/10/02 03:44:32;;;;;;;0.30;0.30;;;;;;;4.37;60.49;99184.03;5035540;28;20492;-63
2021/10/02 03:46:58;;;;;;;0.30;0.30;;;;;;;4.47;60.64;99191.91;5032919;28;20048;-63
2021/10/02 03:49:24;;;;;;;0.57;0.57;;;;;;;4.55;60.57;99187.22;5032785;28;20049;-64
2021/10/02 03:51:49;;;;;;;0.50;0.50;;;;;;;4.63;60.58;99193.63;5035052;28;20049;-64
2021/10/02 03:54:15;;;;;;;1.02;0.77;;;;;;;4.77;60.46;99189.19;5035186;28;20041;-64
2021/10/02 03:56:41;;;;;;;0.20;0.20;;;;;;;4.91;60.12;99182.91;5035208;28;20156;-62
2021/10/02 03:59:06;;;;;;;0.20;0.20;;;;;;;5.17;59.69;99190.56;5034762;28;20076;-63
2021/10/02 04:01:32;;;;;;;0.47;0.40;;;;;;;5.45;59.33;99189.84;5035617;28;20098;-62
2021/10/02 04:03:59;;;;;;;0.40;0.40;;;;;;;5.70;58.77;99194.94;5034692;28;20083;-61
2021/10/02 04:06:25;;;;;;;0.68;0.68;;;;;;;5.70;58.89;99197.66;5034902;28;20072;-62
2021/10/02 04:08:50;;;;;;;0.63;0.60;;;;;;;5.54;59.48;99194.13;5034964;28;20071;-62
2021/10/02 04:11:42;;;;;;;0.50;0.50;;;;;;;5.48;59.84;99203.09;5034658;28;20037;-66
2021/10/02 04:14:11;;;;;;;0.85;0.85;;;;;;;5.28;60.36;99202.84;5034054;28;20045;-66
2021/10/02 04:16:37;;;;;;;1.20;1.15;;;;;;;5.25;60.65;99209.50;5015745;28;20041;-62
2021/10/02 04:19:02;;;;;;;6.60;0.77;;;;;;;5.25;60.70;99206.78;5033262;28;20508;-62
2021/10/02 04:21:28;;;;;;;0.52;0.52;;;;;;;5.30;60.71;99202.66;5033736;28;20050;-61
2021/10/02 04:23:54;;;;;;;0.95;0.93;;;;;;;5.29;60.76;99211.88;5034238;28;20053;-64
2021/10/02 04:26:21;;;;;;;1.55;1.10;;;;;;;5.32;60.81;99208.78;5033289;28;20044;-64
2021/10/02 04:28:49;;;;;;;1.58;0.98;;;;;;;5.35;60.78;99206.50;5033744;28;20045;-65
2021/10/02 04:31:16;;;;;;;0.75;0.73;;;;;;;5.42;60.71;99198.41;5034014;28;20041;-66
2021/10/02 04:33:43;;;;;;;1.58;1.48;;;;;;;5.48;60.67;99204.94;5034919;28;20045;-66
2021/10/02 04:36:09;;;;;;;7.35;1.35;;;;;;;5.47;60.71;99212.28;5034579;28;20052;-66
2021/10/02 04:38:35;;;;;;;0.70;0.70;;;;;;;5.59;60.46;99209.91;5034412;28;20046;-64
2021/10/02 04:41:00;;;;;;;0.57;0.57;;;;;;;5.80;59.91;99217.25;5034591;28;20045;-65
2021/10/02 04:43:26;;;;;;;0.77;0.77;;;;;;;5.95;59.83;99220.75;5034399;28;20049;-64
2021/10/02 04:45:52;;;;;;;1.58;1.40;;;;;;;6.04;59.66;99218.78;5034166;28;20494;-66
2021/10/02 04:48:18;;;;;;;1.08;0.57;;;;;;;6.18;59.51;99217.00;5034352;28;20503;-64
2021/10/02 04:50:43;;;;;;;3.00;1.67;;;;;;;6.21;59.38;99211.16;5041503;28;20041;-64
2021/10/02 04:53:09;;;;;;;2.90;2.22;;;;;;;6.26;59.60;99218.78;5041778;28;20044;-62
2021/10/02 04:55:35;;;;;;;0.75;0.75;;;;;;;6.25;59.67;99217.06;5027158;28;20049;-62
2021/10/02 04:58:01;;;;;;;1.15;1.05;;;;;;;6.30;59.66;99214.59;5041826;28;20069;-62
2021/10/02 05:00:27;;;;;;;0.70;0.70;;;;;;;6.34;59.67;99215.88;5042714;28;20033;-63
2021/10/02 05:02:53;;;;;;;1.00;0.95;;;;;;;6.42;59.55;99220.34;5042162;28;20041;-62
2021/10/02 05:05:18;;;;;;;1.23;1.15;;;;;;;6.52;59.41;99222.72;5024005;28;20043;-63
2021/10/02 05:07:44;;;;;;;2.75;0.98;;;;;;;6.62;59.43;99220.50;5043464;28;20071;-62
2021/10/02 05:10:10;;;;;;;1.58;0.80;;;;;;;6.69;59.24;99220.56;5041785;28;20120;-62
2021/10/02 05:12:36;;;;;;;0.85;0.82;;;;;;;6.72;59.24;99225.63;5047397;28;20171;-63
2021/10/02 05:15:02;;;;;;;6.60;1.60;;;;;;;6.61;59.53;99219.66;5040257;28;20408;-62
2021/10/02 05:17:28;;;;;;;1.63;1.42;;;;;;;6.49;59.95;99222.09;5040896;28;20115;-61
2021/10/02 05:19:54;;;;;;;0.75;0.75;;;;;;;6.39;60.35;99235.25;5042461;28;20029;-62
2021/10/02 05:22:20;;;;;;;0.75;0.75;;;;;;;6.22;60.77;99237.38;5042911;28;20045;-59
2021/10/02 05:24:46;;;;;;;0.80;0.80;;;;;;;5.94;61.20;99224.50;5040788;28;20041;-62
2021/10/02 05:27:14;;;;;;;0.60;0.60;;;;;;;5.95;61.25;99226.22;5042727;28;20043;-61
2021/10/02 05:29:41;;;;;;;0.40;0.40;;;;;;;6.04;61.03;99228.84;5041985;28;20046;-64
2021/10/02 05:32:09;;;;;;;2.85;1.20;;;;;;;6.18;60.48;99222.47;5036457;28;20195;-60
2021/10/02 05:34:35;;;;;;;0.57;0.52;;;;;;;6.32;60.18;99234.34;5032746;28;20124;-63
2021/10/02 05:37:02;;;;;;;1.42;0.52;;;;;;;6.50;59.64;99228.38;5045220;28;20037;-65
2021/10/02 05:39:28;;;;;;;1.33;0.93;;;;;;;6.66;59.25;99222.63;5038253;28;20085;-63
2021/10/02 05:41:54;;;;;;;0.98;0.80;;;;;;;6.79;59.08;99224.59;5041517;28;20102;-62
2021/10/02 05:44:20;;;;;;;0.85;0.85;;;;;;;6.90;58.86;99227.81;5048201;28;20419;-63
2021/10/02 05:50:09;;;;;;;1.33;1.23;;;;;;;7.04;58.54;99234.19;5035362;28;20043;-60
2021/10/02 05:52:35;;;;;;;1.67;1.58;;;;;;;7.02;58.61;99228.94;5038883;28;20037;-64
2021/10/02 05:55:01;;;;;;;1.33;1.23;;;;;;;7.01;58.62;99219.06;5035726;28;20103;-62
2021/10/02 05:57:27;;;;;;;1.05;0.93;;;;;;;7.12;58.26;99225.84;5017402;28;20133;-62
2021/10/02 05:59:52;;;;;;;1.20;0.98;;;;;;;7.23;58.13;99233.47;5037513;28;20692;-62
2021/10/02 06:02:18;;;;;;;0.50;0.50;;;;;;;7.25;58.05;99231.38;5040045;28;20047;-62
2021/10/02 06:04:44;;;;;;;2.40;0.85;;;;;;;7.29;58.06;99223.63;5038127;28;20859;-64
2021/10/02 06:07:10;;;;;;;2.67;0.82;;;;;;;7.26;58.09;99222.13;5049905;28;20036;-62
2021/10/02 06:09:36;;;;;;;1.00;1.00;;;;;;;7.25;58.16;99225.91;5050252;28;20049;-64
2021/10/02 06:12:02;;;;;;;1.20;1.20;;;;;;;7.09;58.51;99226.25;5049978;28;20044;-62
2021/10/02 06:14:27;;;;;;;1.33;1.25;;;;;;;6.83;59.01;99220.44;5050156;28;20079;-62
2021/10/02 06:16:53;;;;;;;0.85;0.85;;;;;;;6.65;59.40;99220.09;5034943;28;20049;-64
2021/10/02 06:19:19;;;;;;;0.80;0.80;;;;;;;6.55;59.69;99228.66;5028623;28;20061;-63
2021/10/02 06:21:46;;;;;;;0.88;0.47;;;;;;;6.42;59.91;99217.59;5041854;28;20051;-61
2021/10/02 06:24:13;;;;;;;0.98;0.75;;;;;;;6.39;59.96;99221.59;5003956;28;20045;-62
2021/10/02 06:26:39;;;;;;;0.40;0.40;;;;;;;6.42;59.74;99225.78;5048436;28;20415;-65
2021/10/02 06:29:06;;;;;;;0.20;0.20;;;;;;;6.42;59.63;99225.78;5047818;28;20033;-64
2021/10/02 06:31:32;;;;;;;0.50;0.50;;;;;;;6.38;59.67;99224.53;5030318;28;20036;-62
2021/10/02 06:33:58;;;;;;;1.88;0.77;;;;;;;6.25;59.76;99231.53;5048539;28;20298;-63
2021/10/02 06:36:27;;;;;;;0.20;0.20;;;;;;;6.10;60.12;99228.06;5048170;28;20526;-64
2021/10/02 06:38:54;;;;;;;0.50;0.50;;;;;;;6.04;60.28;99226.13;5048535;28;20068;-61
2021/10/02 06:41:20;;;;;;;1.10;1.10;;;;;;;6.03;60.09;99224.44;5039058;28;20072;-63
2021/10/02 06:43:46;;;;;;;0.50;0.50;;;;;;;6.08;59.76;99225.53;5028128;28;20178;-62
2021/10/02 06:46:12;;;;;;;0.47;0.47;;;;;;;6.14;59.67;99219.28;5038702;28;20047;-63
2021/10/02 06:48:38;;;;;;;0.80;0.50;;;;;;;6.22;59.42;99223.75;5047304;28;20425;-63
2021/10/02 06:51:03;;;;;;;0.50;0.50;;;;;;;6.25;59.24;99220.63;5048100;28;20051;-62
2021/10/02 06:53:32;;;;;;;0.30;0.30;;;;;;;6.23;59.23;99217.28;5047109;28;20041;-62
2021/10/02 06:55:57;;;;;;;2.50;0.77;;;;;;;6.27;59.24;99220.44;5049263;28;20072;-62
2021/10/02 06:58:23;;;;;;;2.85;0.40;;;;;;;6.28;59.08;99203.03;5047749;28;20555;-62
2021/10/02 07:00:49;;;;;;;0.20;0.20;;;;;;;6.30;59.10;99207.25;5029962;28;20048;-66
2021/10/02 07:03:14;;;;;;;0.32;0.32;;;;;;;6.38;58.85;99203.53;5048137;28;20385;-63
2021/10/02 07:05:40;;;;;;;0.30;0.30;;;;;;;6.38;58.81;99203.53;5048827;28;20132;-65
2021/10/02 07:08:06;;;;;;;0.20;0.20;;;;;;;6.40;58.98;99200.63;5031750;28;20041;-65
2021/10/02 07:10:32;;;;;;;1.50;1.05;;;;;;;6.38;58.85;99194.53;5049258;28;20056;-64
2021/10/02 07:12:59;;;;;;;0.52;0.43;;;;;;;6.38;58.86;99203.53;5049623;28;20597;-65
2021/10/02 07:15:25;;;;;;;0.40;0.40;;;;;;;6.40;58.86;99203.34;5048913;28;20143;-62
2021/10/02 07:17:51;;;;;;;0.57;0.40;;;;;;;6.32;58.75;99198.88;5048808;28;20211;-62
2021/10/02 07:20:16;;;;;;;0.73;0.73;;;;;;;6.22;59.13;99198.38;5049518;28;20048;-65
2021/10/02 07:22:43;;;;;;;0.40;0.40;;;;;;;6.23;59.08;99200.06;5049253;28;20090;-61
2021/10/02 07:25:12;;;;;;;0.57;0.55;;;;;;;6.27;58.86;99196.75;5049484;28;20063;-61
2021/10/02 07:27:39;;;;;;;0.52;0.52;;;;;;;6.30;58.88;99190.91;5049026;28;20045;-62
2021/10/02 07:30:07;;;;;;;0.20;0.20;;;;;;;6.39;58.60;99194.31;5048073;28;20064;-62
2021/10/02 07:32:33;;;;;;;0.32;0.32;;;;;;;6.41;58.49;99185.94;5042560;28;20053;-67
2021/10/02 07:34:59;;;;;;;0.52;0.52;;;;;;;6.47;58.30;99179.69;5029051;28;20041;-62
2021/10/02 07:37:25;;;;;;;0.50;0.50;;;;;;;6.56;58.11;99186.66;5029659;28;20034;-62
2021/10/02 07:39:50;;;;;;;0.30;0.30;;;;;;;6.62;57.95;99191.31;5037468;28;20040;-63
2021/10/02 07:42:18;;;;;;;0.20;0.20;;;;;;;6.71;57.81;99185.72;5049138;28;20059;-60
2021/10/02 07:44:50;;;;;;;0.30;0.30;;;;;;;6.71;57.68;99177.53;5049005;28;20053;-61
2021/10/02 07:47:18;;;;;;;0.30;0.30;;;;;;;6.69;57.85;99183.19;5048567;28;20057;-60
2021/10/02 07:49:44;;;;;;;0.65;0.60;;;;;;;6.74;57.71;99179.84;5049002;28;20045;-63
2021/10/02 07:52:11;;;;;;;0.35;0.35;;;;;;;6.77;57.60;99176.72;5048809;28;20441;-64
2021/10/02 07:54:41;;;;;;;0.55;0.55;;;;;;;6.80;57.59;99173.59;5048917;28;20045;-62
2021/10/02 07:57:07;;;;;;;0.50;0.50;;;;;;;6.83;57.54;99167.72;5031101;28;20072;-64
2021/10/02 07:59:32;;;;;;;0.47;0.47;;;;;;;6.87;57.45;99169.00;5048039;28;20037;-63
2021/10/02 08:01:59;;;;;;;0.60;0.60;;;;;;;7.00;57.26;99179.16;5051966;28;20110;-63
2021/10/02 08:04:25;;;;;;;1.25;1.00;;;;;;;7.12;56.93;99180.25;5052376;28;20056;-62
2021/10/02 08:06:51;;;;;;;2.08;0.65;;;;;;;7.21;56.70;99180.91;5052553;28;20037;-63
2021/10/02 08:09:17;;;;;;;1.05;1.05;;;;;;;7.19;56.74;99181.13;5052311;28;20099;-63
2021/10/02 08:11:43;;;;;;;0.50;0.50;;;;;;;7.19;56.80;99178.38;5052061;28;20048;-61
2021/10/02 08:14:10;;;;;;;2.92;1.20;;;;;;;7.19;56.73;99170.19;5049206;28;20048;-62
2021/10/02 08:16:38;;;;;;;0.38;0.38;;;;;;;7.20;56.83;99173.78;5041518;28;20036;-63
2021/10/02 08:19:07;;;;;;;3.97;0.95;;;;;;;7.16;57.03;99169.78;5041883;28;20064;-63
2021/10/02 08:21:34;;;;;;;0.52;0.52;;;;;;;7.14;57.11;99174.59;5036164;28;20033;-65
2021/10/02 08:24:03;;;;;;;0.68;0.68;;;;;;;7.14;56.99;99169.13;5035830;28;20098;-64
2021/10/02 08:26:30;;;;;;;0.30;0.30;;;;;;;7.11;57.07;99167.66;5036345;28;20048;-62
2021/10/02 08:28:57;;;;;;;0.20;0.20;;;;;;;7.09;56.93;99169.72;5030036;28;20124;-62
2021/10/02 08:31:25;;;;;;;0.88;0.88;;;;;;;7.13;56.96;99167.47;5031132;28;20522;-63
2021/10/02 08:33:52;;;;;;;1.40;0.50;;;;;;;7.17;56.85;99163.28;5031863;28;20050;-63
2021/10/02 08:36:18;;;;;;;0.20;0.20;;;;;;;7.20;56.55;99162.88;5036530;28;20038;-64
2021/10/02 08:38:45;;;;;;;0.20;0.20;;;;;;;7.22;56.50;99163.50;5032888;28;20044;-64
2021/10/02 08:41:15;;;;;;;0.40;0.40;;;;;;;7.26;56.42;99170.25;5035472;28;20457;-62
2021/10/02 08:43:50;;;;;;;0.30;0.30;;;;;;;7.24;56.38;99168.75;5017673;28;20416;-62
2021/10/02 08:46:17;;;;;;;0.32;0.32;;;;;;;7.26;56.41;99166.63;5017182;28;20041;-62
2021/10/02 08:49:00;;;;;;;0.32;0.32;;;;;;;7.34;56.26;99175.50;5035622;28;20059;-64
2021/10/02 08:51:26;;;;;;;0.40;0.40;;;;;;;7.33;56.08;99179.31;5031224;28;20037;-66
2021/10/02 08:53:55;;;;;;;0.30;0.30;;;;;;;7.34;56.11;99177.41;5048152;28;20064;-66
2021/10/02 08:56:21;;;;;;;0.65;0.57;;;;;;;7.27;55.84;99173.81;5050089;28;20033;-67
2021/10/02 08:58:47;;;;;;;0.20;0.20;;;;;;;7.26;56.06;99174.84;5045320;28;20499;-68
2021/10/02 09:01:14;;;;;;;0.73;0.73;;;;;;;7.24;55.87;99166.03;5043788;28;20191;-68
2021/10/02 09:03:43;;;;;;;0.50;0.50;;;;;;;7.22;56.05;99165.41;5038493;28;20150;-62
2021/10/02 09:06:09;;;;;;;0.20;0.20;;;;;;;7.24;55.83;99169.59;5035642;28;20129;-62
2021/10/02 09:08:35;;;;;;;0.25;0.25;;;;;;;7.27;55.76;99158.25;5031203;28;20037;-60
2021/10/02 09:11:01;;;;;;;0.20;0.20;;;;;;;7.32;55.51;99157.66;5032099;28;20064;-61
2021/10/02 09:13:26;;;;;;;0.20;0.20;;;;;;;7.35;55.50;99157.25;5034640;28;20072;-62
2021/10/02 09:15:52;;;;;;;0.80;0.65;;;;;;;7.37;55.17;99147.78;5051296;28;20551;-62
2021/10/02 09:18:19;;;;;;;0.22;0.22;;;;;;;7.43;55.05;99154.31;5038646;28;20056;-65
2021/10/02 09:21:00;;;;;;;0.20;0.20;;;;;;;7.47;54.78;99146.56;5033224;28;20511;-62
2021/10/02 09:23:26;;;;;;;0.30;0.30;;;;;;;7.48;54.72;99149.06;5036340;28;20040;-61
2021/10/02 09:25:52;;;;;;;0.25;0.25;;;;;;;7.52;54.67;99152.22;5035184;28;20042;-62
2021/10/02 09:28:17;;;;;;;0.40;0.40;;;;;;;7.58;54.40;99159.59;5031520;28;20071;-60
2021/10/02 09:30:47;;;;;;;0.40;0.40;;;;;;;7.62;54.48;99151.84;5037058;28;20056;-61
2021/10/02 09:33:20;;;;;;;0.20;0.20;;;;;;;7.62;54.22;99149.94;5021154;28;20091;-62
2021/10/02 09:35:48;;;;;;;0.20;0.20;;;;;;;7.65;54.15;99148.69;5037585;28;20496;-63
2021/10/02 09:38:17;;;;;;;0.28;0.28;;;;;;;7.65;54.01;99149.50;5030691;28;20142;-63
2021/10/02 09:41:08;;;;;;;0.47;0.47;;;;;;;7.65;54.18;99148.69;5032468;28;20033;-67
2021/10/02 09:43:45;;;;;;;0.20;0.20;;;;;;;7.66;54.01;99144.91;5030507;28;20053;-62
2021/10/02 09:46:11;;;;;;;0.20;0.20;;;;;;;7.69;53.90;99158.16;5032073;28;20118;-63
2021/10/02 09:48:37;;;;;;;0.30;0.30;;;;;;;7.74;53.73;99157.53;5031848;28;20504;-62
2021/10/02 09:51:13;;;;;;;0.30;0.30;;;;;;;7.77;53.46;99144.28;5033812;28;20091;-65
2021/10/02 09:53:41;;;;;;;1.30;0.80;;;;;;;7.82;53.26;99149.97;5033839;28;20048;-61
2021/10/02 09:56:12;;;;;;;0.35;0.35;;;;;;;7.85;53.08;99149.56;5038159;28;20213;-61
2021/10/02 09:58:38;;;;;;;0.20;0.20;;;;;;;7.88;52.98;99148.31;5049377;28;20049;-63
2021/10/02 10:01:05;;;;;;;0.20;0.20;;;;;;;7.90;52.88;99146.19;5048509;28;20091;-64
2021/10/02 10:03:46;;;;;;;0.20;0.20;;;;;;;7.89;52.66;99145.34;5030786;28;20053;-62
2021/10/02 10:06:27;;;;;;;0.50;0.50;;;;;;;7.93;52.63;99145.75;5035910;28;20045;-62
2021/10/02 10:09:10;;;;;;;2.67;0.43;;;;;;;7.99;52.51;99155.88;5031051;28;20045;-62
2021/10/02 10:11:48;;;;;;;0.30;0.30;;;;;;;7.99;52.43;99155.03;5031211;28;20167;-61
2021/10/02 10:14:24;;;;;;;0.80;0.30;;;;;;;8.01;52.29;99152.91;5034256;28;20389;-59
2021/10/02 10:16:52;;;;;;;0.20;0.20;;;;;;;8.05;52.29;99151.44;5048242;28;20037;-60
2021/10/02 10:19:22;;;;;;;0.28;0.22;;;;;;;8.11;51.74;99152.50;5050264;28;20439;-60
2021/10/02 10:22:10;;;;;;;0.80;0.40;;;;;;;8.17;51.70;99151.66;5050385;28;20064;-61
2021/10/02 10:24:39;;;;;;;0.25;0.25;;;;;;;8.19;51.71;99149.56;5036920;28;20045;-61
2021/10/02 10:27:05;;;;;;;0.20;0.20;;;;;;;8.22;51.62;99146.41;5049340;28;20037;-60
2021/10/02 10:29:41;;;;;;;0.40;0.35;;;;;;;8.31;51.34;99152.50;5046617;28;20090;-61
2021/10/02 10:32:10;;;;;;;0.20;0.20;;;;;;;8.35;51.37;99143.66;5044247;28;20045;-62
2021/10/02 10:34:38;;;;;;;0.50;0.50;;;;;;;8.38;51.04;99154.19;5038930;28;20041;-64
2021/10/02 10:37:06;;;;;;;0.20;0.20;;;;;;;8.39;51.02;99141.31;5042425;28;20531;-63
2021/10/02 10:39:34;;;;;;;0.47;0.30;;;;;;;8.38;51.18;99137.75;5037908;28;20048;-63
2021/10/02 10:42:04;;;;;;;0.20;0.20;;;;;;;8.39;51.01;99144.94;5039231;28;20045;-63
2021/10/02 10:44:30;;;;;;;0.20;0.20;;;;;;;8.40;50.81;99140.28;5038874;28;20041;-64
2021/10/02 10:46:57;;;;;;;0.43;0.43;;;;;;;8.41;50.75;99136.50;5040099;28;20053;-62
2021/10/02 10:49:24;;;;;;;0.20;0.20;;;;;;;8.40;50.91;99140.28;5038953;28;20542;-61
2021/10/02 10:51:51;;;;;;;0.30;0.20;;;;;;;8.39;50.54;99138.59;5046480;28;20044;-61
2021/10/02 10:54:18;;;;;;;1.08;0.50;;;;;;;8.42;50.72;99143.63;5039600;28;20074;-61
2021/10/02 10:56:47;;;;;;;0.20;0.20;;;;;;;8.42;50.46;99139.03;5039520;28;20045;-62
2021/10/02 10:59:20;;;;;;;0.40;0.40;;;;;;;8.44;50.42;99136.09;5026261;28;20408;-62
2021/10/02 11:01:47;;;;;;;0.30;0.30;;;;;;;8.46;50.42;99135.88;5031434;28;20408;-62
2021/10/02 11:04:31;;;;;;;0.20;0.20;;;;;;;8.49;50.16;99133.56;5032442;28;20056;-64
2021/10/02 11:06:59;;;;;;;0.52;0.40;;;;;;;8.48;50.16;99139.25;5032168;28;20049;-64
2021/10/02 11:09:54;;;;;;;0.20;0.20;;;;;;;8.52;50.10;99135.03;5032220;28;20037;-62
2021/10/02 11:12:19;;;;;;;0.50;0.50;;;;;;;8.53;50.27;99134.81;5011029;28;20041;-62
2021/10/02 11:14:50;;;;;;;0.20;0.20;;;;;;;8.57;50.23;99132.50;5032014;28;20531;-62
2021/10/02 11:17:36;;;;;;;0.75;0.60;;;;;;;8.64;49.75;99135.22;5032057;28;20530;-63
2021/10/02 11:20:17;;;;;;;0.10;0.10;;;;;;;8.65;49.88;99132.25;5031882;28;20042;-62
2021/10/02 11:23:22;;;;;;;0.40;0.40;;;;;;;8.65;49.90;99128.69;5032099;28;20054;-62
2021/10/02 11:26:12;;;;;;;0.20;0.20;;;;;;;8.66;49.98;99124.91;5014052;28;20053;-61
2021/10/02 11:28:39;;;;;;;0.35;0.35;;;;;;;8.65;49.91;99124.06;5031662;28;20455;-62
2021/10/02 11:31:13;;;;;;;0.30;0.30;;;;;;;8.67;49.61;99108.28;5032148;28;20053;-63
2021/10/02 11:33:49;;;;;;;0.40;0.40;;;;;;;8.70;49.63;99118.78;5031670;28;20041;-63
2021/10/02 11:36:34;;;;;;;0.20;0.20;;;;;;;8.70;49.51;99112.44;5033659;28;20092;-62
2021/10/02 11:39:12;;;;;;;0.20;0.20;;;;;;;8.70;49.82;99113.31;5035964;28;20037;-63
2021/10/02 11:41:51;;;;;;;0.70;0.28;;;;;;;8.72;49.64;99113.09;5035911;28;20049;-61
2021/10/02 11:44:36;;;;;;;0.20;0.20;;;;;;;8.71;49.45;99114.97;5017923;28;20504;-62
2021/10/02 11:47:32;;;;;;;0.20;0.20;;;;;;;8.71;49.52;99117.72;5035746;28;20115;-61
2021/10/02 11:50:07;;;;;;;0.30;0.30;;;;;;;8.71;49.42;99120.44;5035991;28;20470;-66
2021/10/02 11:52:39;;;;;;;0.20;0.20;;;;;;;8.70;49.63;99115.19;5035593;28;20048;-62
2021/10/02 11:55:33;;;;;;;0.30;0.30;;;;;;;8.71;49.18;99117.72;5035305;28;20127;-63
2021/10/02 11:58:10;;;;;;;0.40;0.40;;;;;;;8.69;49.37;99111.63;5035619;28;20033;-65
2021/10/02 12:00:46;;;;;;;0.40;0.40;;;;;;;8.68;49.42;99120.88;5034642;28;20037;-63
2021/10/02 12:03:13;;;;;;;0.20;0.20;;;;;;;8.68;49.37;99125.53;5035229;28;20152;-64
2021/10/02 12:05:43;;;;;;;0.20;0.20;;;;;;;8.66;49.09;99119.44;5035112;28;20060;-64
2021/10/02 12:08:10;;;;;;;1.98;0.75;;;;;;;8.66;48.99;99123.00;5035118;28;20069;-62
2021/10/02 12:10:58;;;;;;;0.20;0.20;;;;;;;8.67;49.19;99121.09;5035314;28;20049;-66
2021/10/02 12:13:36;;;;;;;0.30;0.30;;;;;;;8.64;49.17;99119.63;5035766;28;20096;-64
2021/10/02 12:16:16;;;;;;;0.40;0.40;;;;;;;8.63;49.06;99117.97;5034764;28;20046;-65
2021/10/02 12:18:48;;;;;;;0.55;0.55;;;;;;;8.60;48.99;99121.13;5035135;28;20144;-66
2021/10/02 12:21:24;;;;;;;1.58;1.25;;;;;;;8.58;48.96;99117.75;5034708;28;20597;-66
2021/10/02 12:24:04;;;;;;;0.75;0.75;;;;;;;8.54;48.98;99122.81;5034921;28;20048;-63
2021/10/02 12:26:47;;;;;;;1.45;0.60;;;;;;;8.51;48.98;99125.13;5034937;28;20068;-66
2021/10/02 12:29:17;;;;;;;0.52;0.52;;;;;;;8.44;49.18;99124.28;5034238;28;20067;-63
2021/10/02 12:31:46;;;;;;;2.05;1.25;;;;;;;8.37;49.24;99135.25;5034612;28;20041;-63
2021/10/02 12:34:15;;;;;;;1.33;0.75;;;;;;;8.31;49.13;99125.16;5034841;28;20049;-63
2021/10/02 12:36:44;;;;;;;0.32;0.32;;;;;;;8.23;49.43;99123.47;5034523;28;20076;-63
2021/10/02 12:39:09;;;;;;;0.73;0.73;;;;;;;8.17;49.29;99130.63;5031648;28;20050;-63
2021/10/02 12:41:40;;;;;;;0.60;0.60;;;;;;;8.12;49.34;99124.13;5034514;28;20045;-61
2021/10/02 12:44:15;;;;;;;0.50;0.50;;;;;;;8.07;49.43;99127.50;5034448;28;20136;-63
2021/10/02 12:46:40;;;;;;;0.30;0.30;;;;;;;8.04;49.27;99136.13;5033665;28;20038;-60
2021/10/02 12:49:06;;;;;;;0.95;0.77;;;;;;;8.00;49.30;99129.38;5033784;28;20424;-62
2021/10/02 12:51:32;;;;;;;0.40;0.40;;;;;;;7.95;49.27;99132.75;5015828;28;20052;-64
2021/10/02 12:53:58;;;;;;;0.85;0.80;;;;;;;7.90;49.46;99124.31;5034348;28;20041;-62